Time;durP1;ratioP1;P1;durP2;ratioP2;P2;SDS_P1;SDS_P2;PMS_P1;PMS_P2;Temp;Humidity;BMP_temperature;BMP_pressure;BME280_temperature;BME280_humidity;BME280_pressure;Samples;Min_cycle;Max_cycle;Signal;HPM_P1;HPM_P2
2021/05/24 00:02:05;;;;;;;14.57;3.25;;;;;;;12.25;58.53;100894.41;5105786;28;20499;-72
2021/05/24 00:04:30;;;;;;;11.85;3.05;;;;;;;12.21;59.38;100906.75;5106687;28;20037;-73
2021/05/24 00:06:56;;;;;;;13.48;3.00;;;;;;;12.19;58.76;100898.81;5104446;28;20073;-72
2021/05/24 00:09:21;;;;;;;14.00;3.03;;;;;;;12.16;59.64;100901.47;5107854;28;20039;-64
2021/05/24 00:11:50;;;;;;;14.13;3.00;;;;;;;12.14;59.82;100897.91;5104401;28;20024;-63
2021/05/24 00:14:18;;;;;;;11.70;3.22;;;;;;;12.12;59.58;100885.59;5107188;28;20024;-64
2021/05/24 00:16:44;;;;;;;9.43;2.92;;;;;;;12.12;59.78;100894.41;5104430;28;20497;-63
2021/05/24 00:19:09;;;;;;;10.82;3.15;;;;;;;12.10;59.80;100893.53;5106609;28;20032;-63
2021/05/24 00:21:34;;;;;;;14.20;3.20;;;;;;;12.13;60.24;100885.56;5105565;28;20449;-64
2021/05/24 00:24:00;;;;;;;11.75;3.05;;;;;;;12.12;59.99;100878.50;5104489;28;20044;-64
2021/05/24 00:26:25;;;;;;;13.13;3.00;;;;;;;12.14;59.68;100871.41;5107326;28;20031;-64
2021/05/24 00:28:50;;;;;;;13.65;3.20;;;;;;;12.12;60.83;100872.34;5103975;28;20016;-63
2021/05/24 00:31:16;;;;;;;10.70;2.92;;;;;;;12.09;60.35;100867.03;5107214;28;20480;-63
2021/05/24 00:33:41;;;;;;;13.60;3.10;;;;;;;12.11;60.79;100862.63;5102959;28;20493;-64
2021/05/24 00:36:07;;;;;;;9.57;2.90;;;;;;;12.06;60.88;100862.63;5105381;28;20023;-64
2021/05/24 00:38:32;;;;;;;11.73;2.90;;;;;;;12.04;60.81;100856.44;5104263;28;20166;-64
2021/05/24 00:40:58;;;;;;;11.57;2.90;;;;;;;12.06;60.80;100848.47;5103197;28;20027;-63
2021/05/24 00:43:23;;;;;;;13.60;2.97;;;;;;;12.07;60.99;100855.53;5104838;28;20028;-63
2021/05/24 00:45:48;;;;;;;11.10;2.80;;;;;;;12.06;60.78;100854.69;5106413;28;20030;-63
2021/05/24 00:48:14;;;;;;;13.45;3.08;;;;;;;12.12;60.35;100846.72;5102916;28;20032;-63
2021/05/24 00:50:40;;;;;;;13.05;2.95;;;;;;;12.07;61.32;100837.88;5106952;28;20036;-69
2021/05/24 00:53:06;;;;;;;10.70;2.80;;;;;;;12.04;61.19;100845.81;5103554;28;20028;-68
2021/05/24 00:55:31;;;;;;;13.70;3.00;;;;;;;12.06;61.13;100843.19;5105786;28;20036;-70
2021/05/24 00:57:57;;;;;;;12.73;3.10;;;;;;;12.02;61.47;100827.28;5104933;28;20027;-70
2021/05/24 01:00:29;;;;;;;11.20;3.00;;;;;;;12.02;61.75;100826.41;5104631;28;20028;-70
2021/05/24 01:02:56;;;;;;;10.20;2.70;;;;;;;12.00;61.76;100823.78;5104988;28;20107;-71
2021/05/24 01:05:23;;;;;;;12.40;2.75;;;;;;;11.99;61.74;100824.66;5104220;28;20039;-69
2021/05/24 01:07:49;;;;;;;11.30;2.90;;;;;;;12.04;61.22;100816.69;5106060;28;20028;-69
2021/05/24 01:10:14;;;;;;;13.20;2.85;;;;;;;11.98;62.30;100812.28;5103294;28;20031;-70
2021/05/24 01:12:40;;;;;;;12.75;2.97;;;;;;;11.99;62.28;100808.75;5106433;28;20502;-70
2021/05/24 01:15:06;;;;;;;10.77;2.80;;;;;;;11.98;61.81;100800.81;5103629;28;20028;-70
2021/05/24 01:17:32;;;;;;;11.05;3.10;;;;;;;11.98;62.23;100800.81;5105232;28;20046;-70
2021/05/24 01:19:57;;;;;;;13.55;3.08;;;;;;;11.98;62.31;100796.38;5104262;28;20024;-70
2021/05/24 01:22:23;;;;;;;12.52;2.83;;;;;;;11.96;62.80;100792.00;5104038;28;20164;-70
2021/05/24 01:24:49;;;;;;;10.38;2.80;;;;;;;11.96;63.20;100792.88;5105226;28;20067;-68
2021/05/24 01:27:15;;;;;;;10.65;2.90;;;;;;;11.95;63.04;100787.56;5102765;28;20021;-70
2021/05/24 01:29:42;;;;;;;10.13;2.85;;;;;;;11.96;63.29;100779.63;5106303;28;20032;-69
2021/05/24 01:32:08;;;;;;;11.60;2.63;;;;;;;11.97;63.01;100786.69;5102679;28;20063;-70
2021/05/24 01:34:34;;;;;;;11.55;2.60;;;;;;;12.00;63.69;100778.72;5105466;28;20066;-73
2021/05/24 01:37:01;;;;;;;9.85;2.50;;;;;;;11.98;63.39;100782.25;5103719;28;20030;-73
2021/05/24 01:39:27;;;;;;;11.90;2.60;;;;;;;11.96;63.84;100782.28;5104654;28;20030;-72
2021/05/24 01:41:52;;;;;;;8.90;2.60;;;;;;;11.95;64.18;100782.28;5104392;28;20024;-73
2021/05/24 01:44:36;;;;;;;12.98;2.70;;;;;;;11.93;63.71;100781.38;5104664;28;20049;-73
2021/05/24 01:47:02;;;;;;;12.05;2.90;;;;;;;11.96;62.83;100770.81;5102302;28;20027;-72
2021/05/24 01:49:30;;;;;;;9.68;2.80;;;;;;;11.97;63.23;100767.25;5105004;28;20168;-71
2021/05/24 01:51:55;;;;;;;11.98;2.60;;;;;;;11.99;63.16;100765.50;5103088;28;20605;-69
2021/05/24 01:54:20;;;;;;;12.73;2.80;;;;;;;11.97;63.58;100769.91;5104120;28;20024;-71
2021/05/24 01:56:46;;;;;;;10.75;2.67;;;;;;;11.94;63.94;100768.16;5104567;28;20042;-70
2021/05/24 01:59:11;;;;;;;9.98;2.63;;;;;;;11.92;63.70;100769.88;5102670;28;20034;-70
2021/05/24 02:01:37;;;;;;;14.50;2.70;;;;;;;11.91;64.15;100761.94;5104562;28;20031;-74
2021/05/24 02:04:03;;;;;;;10.05;2.72;;;;;;;11.90;64.46;100761.06;5097979;28;20032;-71
2021/05/24 02:06:28;;;;;;;13.27;2.78;;;;;;;11.90;64.36;100754.88;5104902;28;20031;-72
2021/05/24 02:08:54;;;;;;;9.02;2.60;;;;;;;11.91;64.51;100757.53;5102945;28;20020;-70
2021/05/24 02:11:19;;;;;;;11.35;2.60;;;;;;;11.89;64.83;100755.78;5103356;28;20459;-69
2021/05/24 02:13:46;;;;;;;10.45;2.60;;;;;;;11.88;64.35;100760.16;5104334;28;20080;-74
2021/05/24 02:16:12;;;;;;;11.02;2.63;;;;;;;11.87;65.51;100753.13;5102896;28;20032;-73
2021/05/24 02:18:37;;;;;;;11.23;2.70;;;;;;;11.85;64.84;100747.84;5104667;28;20016;-63
2021/05/24 02:21:06;;;;;;;9.45;2.90;;;;;;;11.83;65.30;100746.94;5101967;28;20024;-64
2021/05/24 02:23:31;;;;;;;8.40;2.60;;;;;;;11.83;65.19;100749.59;5104820;28;20044;-63
2021/05/24 02:25:57;;;;;;;10.38;2.58;;;;;;;11.89;64.89;100754.00;5101928;28;20036;-63
2021/05/24 02:28:22;;;;;;;10.98;2.60;;;;;;;11.91;64.88;100749.59;5104430;28;20031;-64
2021/05/24 02:30:47;;;;;;;10.55;2.80;;;;;;;11.86;65.39;100743.41;5102860;28;20032;-64
2021/05/24 02:33:13;;;;;;;9.85;2.60;;;;;;;11.94;63.87;100746.06;5102985;28;20430;-63
2021/05/24 02:35:38;;;;;;;11.20;2.65;;;;;;;11.94;64.15;100740.78;5104332;28;20023;-63
2021/05/24 02:38:04;;;;;;;11.45;2.72;;;;;;;11.97;64.56;100733.72;5101351;28;20024;-63
2021/05/24 02:40:30;;;;;;;8.95;2.60;;;;;;;11.91;64.88;100736.34;5101222;28;20063;-63
2021/05/24 02:42:56;;;;;;;8.93;2.58;;;;;;;11.95;64.54;100731.94;5104853;28;20055;-64
2021/05/24 02:45:21;;;;;;;14.15;2.50;;;;;;;11.93;65.27;100739.00;5100096;28;20034;-63
2021/05/24 02:47:48;;;;;;;8.82;2.60;;;;;;;11.96;64.49;100733.72;5104528;28;20031;-63
2021/05/24 02:50:21;;;;;;;11.70;2.72;;;;;;;11.95;64.40;100734.59;5102312;28;20043;-63
2021/05/24 02:52:47;;;;;;;8.10;2.50;;;;;;;11.93;64.73;100724.00;5103846;28;20127;-63
2021/05/24 02:55:13;;;;;;;8.02;2.50;;;;;;;11.99;64.29;100728.41;5102515;28;20043;-63
2021/05/24 02:57:39;;;;;;;9.30;2.80;;;;;;;11.96;64.58;100728.41;5103212;28;20028;-63
2021/05/24 03:00:07;;;;;;;11.30;2.70;;;;;;;11.90;65.57;100724.00;5103592;28;20023;-63
2021/05/24 03:02:32;;;;;;;7.43;2.42;;;;;;;11.88;64.91;100722.22;5102277;28;20020;-63
2021/05/24 03:04:58;;;;;;;10.55;2.65;;;;;;;11.88;65.40;100722.22;5104392;28;20023;-63
2021/05/24 03:07:23;;;;;;;10.93;2.55;;;;;;;11.90;64.68;100723.09;5100754;28;20034;-63
2021/05/24 03:09:48;;;;;;;10.77;2.60;;;;;;;11.90;64.95;100712.50;5104666;28;20535;-63
2021/05/24 03:12:14;;;;;;;8.18;2.50;;;;;;;11.92;64.62;100716.91;5104173;28;20031;-63
2021/05/24 03:14:40;;;;;;;12.77;2.80;;;;;;;11.86;65.31;100715.16;5107358;28;20435;-63
2021/05/24 03:17:06;;;;;;;11.07;2.67;;;;;;;11.85;65.16;100713.41;5107292;28;20489;-63
2021/05/24 03:19:31;;;;;;;8.07;2.42;;;;;;;11.81;65.22;100713.41;5106088;28;20107;-63
2021/05/24 03:21:57;;;;;;;8.60;2.50;;;;;;;11.81;65.69;100708.09;5108350;28;20053;-63
2021/05/24 03:24:22;;;;;;;8.82;2.47;;;;;;;11.77;65.37;100707.25;5104994;28;20040;-63
2021/05/24 03:26:47;;;;;;;10.00;2.50;;;;;;;11.82;65.19;100710.78;5108017;28;20084;-63
2021/05/24 03:29:13;;;;;;;11.63;2.50;;;;;;;11.88;65.45;100708.97;5106016;28;20027;-63
2021/05/24 03:31:38;;;;;;;8.25;2.40;;;;;;;11.85;65.04;100710.75;5106835;28;20028;-63
2021/05/24 03:34:04;;;;;;;10.02;2.60;;;;;;;11.81;65.68;100700.16;5107209;28;20024;-63
2021/05/24 03:36:29;;;;;;;10.70;2.60;;;;;;;11.90;64.76;100702.78;5105297;28;20032;-63
2021/05/24 03:38:54;;;;;;;10.27;2.60;;;;;;;11.92;65.34;100706.31;5108285;28;20469;-63
2021/05/24 03:41:20;;;;;;;11.02;2.60;;;;;;;11.88;65.27;100707.19;5102849;28;20107;-63
2021/05/24 03:43:45;;;;;;;10.23;2.50;;;;;;;11.83;65.63;100706.34;5108552;28;20034;-63
2021/05/24 03:46:11;;;;;;;9.00;2.47;;;;;;;11.88;65.20;100712.50;5104637;28;20028;-63
2021/05/24 03:48:37;;;;;;;11.25;2.38;;;;;;;11.82;65.41;100705.47;5107886;28;20584;-63
2021/05/24 03:51:04;;;;;;;9.48;2.40;;;;;;;11.78;66.19;100708.13;5105558;28;20027;-63
2021/05/24 03:53:30;;;;;;;10.32;2.60;;;;;;;11.78;65.74;100703.72;5106628;28;20062;-63
2021/05/24 03:55:55;;;;;;;10.18;2.65;;;;;;;11.75;66.97;100698.44;5106364;28;20118;-63
2021/05/24 03:58:20;;;;;;;10.85;2.60;;;;;;;11.74;66.50;100696.66;5105531;28;20032;-63
2021/05/24 04:00:46;;;;;;;10.60;2.60;;;;;;;11.73;66.28;100705.47;5107707;28;20023;-63
2021/05/24 04:03:11;;;;;;;11.38;2.60;;;;;;;11.75;65.88;100714.31;5104191;28;20378;-63
2021/05/24 04:05:39;;;;;;;10.55;2.80;;;;;;;11.73;66.15;100700.19;5108154;28;20051;-63
2021/05/24 04:08:06;;;;;;;10.52;2.58;;;;;;;11.76;66.05;100702.81;5105017;28;20149;-63
2021/05/24 04:10:38;;;;;;;11.32;2.50;;;;;;;11.77;65.90;100701.06;5106580;28;20031;-63
2021/05/24 04:13:03;;;;;;;7.63;2.40;;;;;;;11.79;65.15;100689.56;5105226;28;20027;-63
2021/05/24 04:15:29;;;;;;;9.98;2.58;;;;;;;11.80;66.07;100691.34;5106117;28;20483;-63
2021/05/24 04:17:58;;;;;;;8.77;2.50;;;;;;;11.75;65.40;100698.44;5106170;28;20102;-63
2021/05/24 04:20:24;;;;;;;11.70;2.63;;;;;;;11.75;66.28;100695.78;5105427;28;20363;-63
2021/05/24 04:22:50;;;;;;;12.65;2.60;;;;;;;11.77;65.67;100698.44;5105921;28;20076;-69
2021/05/24 04:25:16;;;;;;;10.40;2.40;;;;;;;11.81;65.41;100693.13;5103850;28;20062;-70
2021/05/24 04:27:41;;;;;;;10.82;2.67;;;;;;;11.81;66.18;100692.22;5107475;28;20026;-69
2021/05/24 04:30:08;;;;;;;13.13;2.50;;;;;;;11.82;66.07;100700.19;5103957;28;20016;-69
2021/05/24 04:32:34;;;;;;;12.45;2.60;;;;;;;11.90;64.80;100691.28;5106482;28;20039;-71
2021/05/24 04:34:59;;;;;;;12.65;2.60;;;;;;;11.94;65.05;100687.78;5105472;28;20144;-69
2021/05/24 04:37:24;;;;;;;7.85;2.40;;;;;;;11.96;64.66;100675.44;5105379;28;20024;-68
2021/05/24 04:39:50;;;;;;;9.27;2.50;;;;;;;11.93;65.62;100691.31;5105945;28;20070;-70
2021/05/24 04:42:15;;;;;;;13.00;2.67;;;;;;;12.00;64.10;100693.97;5104708;28;20020;-69
2021/05/24 04:44:41;;;;;;;11.30;2.50;;;;;;;12.09;63.81;100684.22;5106919;28;20099;-70
2021/05/24 04:47:07;;;;;;;12.68;2.63;;;;;;;12.04;63.66;100689.50;5103828;28;20024;-69
2021/05/24 04:49:32;;;;;;;7.70;2.45;;;;;;;12.07;63.87;100685.97;5107375;28;20366;-69
2021/05/24 04:52:01;;;;;;;8.57;2.40;;;;;;;12.06;64.87;100687.75;5103448;28;20035;-70
2021/05/24 04:54:27;;;;;;;10.70;2.53;;;;;;;12.08;64.08;100685.09;5105038;28;20039;-71
2021/05/24 04:56:53;;;;;;;10.60;2.40;;;;;;;12.11;63.69;100700.97;5104502;28;20027;-70
2021/05/24 04:59:18;;;;;;;12.02;2.50;;;;;;;12.15;63.67;100686.84;5105120;28;20032;-68
2021/05/24 05:01:47;;;;;;;13.25;2.72;;;;;;;12.13;64.45;100689.50;5105573;28;20106;-66
2021/05/24 05:04:12;;;;;;;7.03;2.47;;;;;;;12.14;64.24;100683.28;5104630;28;20040;-72
2021/05/24 05:06:37;;;;;;;12.35;2.60;;;;;;;12.10;64.96;100691.25;5106081;28;20031;-71
2021/05/24 05:09:04;;;;;;;10.52;2.60;;;;;;;12.08;64.40;100693.91;5103224;28;20036;-71
2021/05/24 05:11:29;;;;;;;10.25;2.72;;;;;;;12.08;66.23;100693.91;5106799;28;20386;-73
2021/05/24 05:13:54;;;;;;;9.57;2.40;;;;;;;12.09;65.40;100685.09;5103874;28;20024;-73
2021/05/24 05:16:20;;;;;;;14.35;2.90;;;;;;;12.09;65.34;100687.75;5103318;28;20459;-73
2021/05/24 05:18:45;;;;;;;10.98;2.63;;;;;;;12.06;65.87;100692.16;5104789;28;20028;-73
2021/05/24 05:21:10;;;;;;;8.52;2.42;;;;;;;12.03;65.78;100695.72;5104860;28;20031;-73
2021/05/24 05:23:36;;;;;;;9.30;2.50;;;;;;;12.05;64.85;100695.72;5103543;28;20039;-75
2021/05/24 05:26:01;;;;;;;11.82;2.80;;;;;;;12.00;65.98;100693.09;5106137;28;20050;-68
2021/05/24 05:28:26;;;;;;;12.23;2.80;;;;;;;11.82;68.77;100708.13;5101201;28;20043;-74
2021/05/24 05:30:53;;;;;;;9.68;2.75;;;;;;;11.51;69.68;100721.41;5105656;28;20019;-73
2021/05/24 05:33:18;;;;;;;11.15;2.78;;;;;;;11.12;72.83;100727.63;5103548;28;20492;-73
2021/05/24 05:35:47;;;;;;;12.90;2.92;;;;;;;10.67;75.59;100709.03;5104183;28;20024;-72
2021/05/24 05:38:13;;;;;;;11.40;2.80;;;;;;;10.32;77.90;100730.06;5104786;28;20035;-74
2021/05/24 05:40:39;;;;;;;7.25;2.60;;;;;;;10.00;78.77;100726.41;5104341;28;20471;-73
2021/05/24 05:43:04;;;;;;;6.65;2.60;;;;;;;9.84;79.36;100727.22;5102451;28;20023;-71
2021/05/24 05:45:30;;;;;;;11.10;2.65;;;;;;;9.70;79.78;100712.19;5103591;28;20536;-72
2021/05/24 05:47:55;;;;;;;12.35;2.80;;;;;;;9.57;81.53;100710.34;5105564;28;20027;-72
2021/05/24 05:50:20;;;;;;;8.38;2.80;;;;;;;9.53;84.66;100706.78;5093874;28;20016;-73
2021/05/24 05:52:46;;;;;;;8.70;2.80;;;;;;;9.46;86.45;100704.13;5091677;28;20024;-72
2021/05/24 05:55:11;;;;;;;10.07;2.70;;;;;;;9.35;87.24;100693.47;5091860;28;20135;-64
2021/05/24 05:57:37;;;;;;;11.13;2.80;;;;;;;9.42;86.86;100705.81;5092212;28;20043;-77
2021/05/24 06:00:06;;;;;;;10.82;2.90;;;;;;;9.36;88.09;100708.44;5091594;28;20043;-72
2021/05/24 06:02:31;;;;;;;12.23;2.80;;;;;;;9.39;89.15;100697.91;5091913;28;20032;-78
2021/05/24 06:04:56;;;;;;;11.48;2.90;;;;;;;9.37;88.08;100713.72;5094421;28;20383;-73
2021/05/24 06:07:22;;;;;;;13.48;3.00;;;;;;;9.41;90.63;100704.97;5092685;28;20035;-68
2021/05/24 06:09:47;;;;;;;12.88;2.92;;;;;;;9.41;93.04;100702.31;5091724;28;20019;-72
2021/05/24 06:12:12;;;;;;;10.98;3.10;;;;;;;9.47;90.23;100703.25;5092335;28;20029;-69
2021/05/24 06:14:38;;;;;;;11.75;3.13;;;;;;;9.44;93.36;100709.38;5090307;28;20411;-68
2021/05/24 06:17:05;;;;;;;8.93;2.85;;;;;;;9.48;92.60;100707.63;5093722;28;20031;-73
2021/05/24 06:19:31;;;;;;;8.90;2.63;;;;;;;9.48;87.87;100702.34;5091824;28;20383;-71
2021/05/24 06:21:56;;;;;;;10.93;3.00;;;;;;;9.48;92.31;100703.25;5092223;28;20030;-70
2021/05/24 06:24:21;;;;;;;11.98;3.00;;;;;;;9.53;91.50;100698.00;5091529;28;20043;-82
2021/05/24 06:26:47;;;;;;;10.35;3.00;;;;;;;9.58;91.03;100704.16;5091780;28;20035;-75
2021/05/24 06:29:12;;;;;;;12.98;3.00;;;;;;;9.62;91.43;100705.97;5090742;28;20121;-72
2021/05/24 06:31:39;;;;;;;10.80;3.00;;;;;;;9.73;88.40;100711.31;5092194;28;20371;-79
2021/05/24 06:34:04;;;;;;;8.70;2.85;;;;;;;9.83;89.22;100705.22;5091947;28;20036;-76
2021/05/24 06:36:30;;;;;;;10.27;3.05;;;;;;;9.93;87.46;100698.19;5092683;28;20027;-73
2021/05/24 06:38:56;;;;;;;12.68;3.22;;;;;;;9.99;86.88;100700.00;5096892;28;20020;-70
2021/05/24 06:41:21;;;;;;;11.18;3.20;;;;;;;9.96;91.34;100703.53;5073169;28;20032;-76
2021/05/24 06:43:47;;;;;;;10.98;3.20;;;;;;;9.97;89.55;100705.28;5091684;28;20382;-74
2021/05/24 06:46:12;;;;;;;11.95;3.17;;;;;;;9.85;93.96;100706.09;5091183;28;20444;-71
2021/05/24 06:48:37;;;;;;;12.48;3.30;;;;;;;9.77;93.86;100702.53;5091417;28;20403;-73
2021/05/24 06:51:03;;;;;;;13.82;3.70;;;;;;;9.72;97.25;100699.00;5092274;28;20714;-71
2021/05/24 06:53:29;;;;;;;12.93;3.40;;;;;;;9.67;97.87;100693.69;5089923;28;20021;-74
2021/05/24 06:55:54;;;;;;;12.30;3.30;;;;;;;9.71;92.86;100699.84;5090877;28;20031;-73
2021/05/24 06:58:19;;;;;;;14.98;3.40;;;;;;;9.74;94.07;100694.59;5092090;28;20035;-68
2021/05/24 07:00:45;;;;;;;11.23;3.10;;;;;;;9.74;92.33;100705.16;5091170;28;20020;-68
2021/05/24 07:03:11;;;;;;;14.07;3.35;;;;;;;9.69;94.56;100707.78;5091897;28;20070;-67
2021/05/24 07:05:37;;;;;;;13.48;3.17;;;;;;;9.75;95.19;100709.56;5090285;28;20378;-68
2021/05/24 07:08:02;;;;;;;12.68;3.30;;;;;;;9.82;93.13;100703.44;5091634;28;20024;-77
2021/05/24 07:10:28;;;;;;;13.68;3.28;;;;;;;9.89;92.39;100702.59;5091132;28;20425;-75
2021/05/24 07:12:53;;;;;;;9.90;3.20;;;;;;;9.97;88.22;100712.31;5091937;28;20034;-66
2021/05/24 07:15:18;;;;;;;10.75;3.08;;;;;;;10.07;87.24;100707.06;5094303;28;20706;-69
2021/05/24 07:17:44;;;;;;;12.50;3.00;;;;;;;10.08;86.07;100707.97;5091020;28;20032;-71
2021/05/24 07:20:10;;;;;;;15.05;3.20;;;;;;;10.04;84.87;100706.19;5092563;28;20144;-65
2021/05/24 07:22:36;;;;;;;14.38;3.42;;;;;;;10.09;89.33;100705.34;5090401;28;20027;-74
2021/05/24 07:25:03;;;;;;;13.52;3.00;;;;;;;10.11;85.33;100706.22;5090986;28;20024;-65
2021/05/24 07:27:28;;;;;;;12.30;3.13;;;;;;;10.14;85.06;100708.00;5092182;28;20020;-69
2021/05/24 07:29:53;;;;;;;11.25;3.03;;;;;;;10.06;82.59;100707.97;5090826;28;20463;-75
2021/05/24 07:32:19;;;;;;;12.93;3.33;;;;;;;9.93;85.80;100719.31;5101467;28;20030;-68
2021/05/24 07:34:44;;;;;;;13.88;3.10;;;;;;;9.92;87.58;100712.31;5101554;28;20020;-72
2021/05/24 07:37:10;;;;;;;12.35;3.30;;;;;;;9.80;93.89;100712.22;5101998;28;20067;-69
2021/05/24 07:39:35;;;;;;;11.90;3.10;;;;;;;9.73;90.04;100700.75;5100424;28;20035;-71
2021/05/24 07:42:02;;;;;;;12.65;3.20;;;;;;;9.64;91.11;100706.88;5102266;28;20052;-70
2021/05/24 07:44:28;;;;;;;12.13;3.45;;;;;;;9.52;99.91;100706.78;5104728;28;20042;-70
2021/05/24 07:46:55;;;;;;;10.32;3.13;;;;;;;9.37;96.63;100697.88;5092348;28;20036;-76
2021/05/24 07:49:21;;;;;;;13.65;3.60;;;;;;;9.29;100.00;100703.97;5092758;28;20421;-67
2021/05/24 07:51:48;;;;;;;10.77;3.10;;;;;;;9.41;94.20;100710.22;5092487;28;20035;-71
2021/05/24 07:54:13;;;;;;;13.27;3.42;;;;;;;9.35;97.39;100707.56;5092407;28;20444;-67
2021/05/24 07:56:39;;;;;;;10.90;3.20;;;;;;;9.43;98.80;100708.47;5092453;28;20020;-71
2021/05/24 07:59:04;;;;;;;13.55;3.45;;;;;;;9.55;98.95;100710.34;5095312;28;20027;-75
2021/05/24 08:01:30;;;;;;;13.48;3.58;;;;;;;9.52;97.39;100701.50;5104851;28;20101;-79
2021/05/24 08:03:55;;;;;;;13.73;3.40;;;;;;;9.62;93.92;100692.75;5108022;28;20048;-79
2021/05/24 08:06:21;;;;;;;14.18;3.70;;;;;;;9.62;99.37;100703.31;5104615;28;20193;-78
2021/05/24 08:08:46;;;;;;;13.55;3.85;;;;;;;9.68;96.91;100703.34;5106708;28;20070;-75
2021/05/24 08:11:14;;;;;;;11.55;3.63;;;;;;;9.75;97.93;100694.59;5105906;28;20549;-78
2021/05/24 08:13:39;;;;;;;12.35;3.50;;;;;;;9.83;94.50;100701.66;5105723;28;20055;-77
2021/05/24 08:16:05;;;;;;;17.00;3.80;;;;;;;9.85;100.00;100706.09;5106376;28;20066;-72
2021/05/24 08:18:30;;;;;;;14.20;3.67;;;;;;;10.00;97.26;100699.13;5104056;28;20031;-79
2021/05/24 08:20:56;;;;;;;12.27;3.63;;;;;;;10.04;92.85;100701.78;5104589;28;20084;-72
2021/05/24 08:23:21;;;;;;;12.50;3.17;;;;;;;10.16;91.91;100700.06;5107358;28;20395;-79
2021/05/24 08:25:46;;;;;;;12.73;3.60;;;;;;;10.16;94.04;100694.78;5103846;28;20399;-75
2021/05/24 08:28:12;;;;;;;13.80;3.45;;;;;;;10.28;90.41;100702.75;5105378;28;20114;-79
2021/05/24 08:30:37;;;;;;;13.55;3.45;;;;;;;10.34;88.80;100701.91;5105256;28;20428;-73
2021/05/24 08:33:03;;;;;;;13.45;3.40;;;;;;;10.40;90.41;100694.03;5105086;28;20515;-71
2021/05/24 08:35:29;;;;;;;14.50;3.53;;;;;;;10.57;93.27;100692.31;5106351;28;20563;-78
2021/05/24 08:37:54;;;;;;;11.43;3.25;;;;;;;10.60;87.84;100681.75;5104067;28;20024;-79
2021/05/24 08:40:20;;;;;;;12.60;3.35;;;;;;;10.60;93.22;100687.03;5107565;28;20020;-82
2021/05/24 08:42:46;;;;;;;13.20;3.50;;;;;;;10.61;99.59;100698.47;5103869;28;20036;-79
2021/05/24 08:45:13;;;;;;;13.40;3.50;;;;;;;10.66;93.33;100698.47;5104673;28;20059;-77
2021/05/24 08:47:38;;;;;;;16.42;3.92;;;;;;;10.60;98.01;100701.97;5105969;28;20035;-81
2021/05/24 08:50:05;;;;;;;15.65;3.60;;;;;;;10.50;96.98;100697.56;5104672;28;20023;-79
2021/05/24 08:52:31;;;;;;;12.57;3.70;;;;;;;10.48;100.00;100694.91;5105342;28;20028;-76
2021/05/24 08:54:57;;;;;;;9.45;3.40;;;;;;;10.44;95.94;100694.03;5105704;28;20024;-79
2021/05/24 08:57:22;;;;;;;12.75;3.70;;;;;;;10.34;100.00;100689.59;5103746;28;20016;-80
2021/05/24 08:59:48;;;;;;;12.82;3.70;;;;;;;10.35;100.00;100687.84;5107285;28;20116;-77
2021/05/24 09:02:14;;;;;;;13.90;3.50;;;;;;;10.37;100.00;100689.63;5102233;28;20051;-80
2021/05/24 09:04:48;;;;;;;13.57;3.88;;;;;;;10.38;100.00;100696.69;5104105;28;20031;-75
2021/05/24 09:07:15;;;;;;;15.80;4.00;;;;;;;10.42;100.00;100697.56;5105892;28;20027;-75
2021/05/24 09:09:58;;;;;;;12.18;3.97;;;;;;;10.40;100.00;100684.34;5102853;28;20075;-70
2021/05/24 09:12:30;;;;;;;13.57;3.70;;;;;;;10.35;100.00;100686.06;5105703;28;20027;-68
2021/05/24 09:14:58;;;;;;;16.48;4.00;;;;;;;10.43;100.00;100683.47;5103758;28;20356;-67
2021/05/24 09:17:23;;;;;;;13.63;3.90;;;;;;;10.33;100.00;100686.94;5106516;28;20023;-73
2021/05/24 09:19:49;;;;;;;16.42;4.75;;;;;;;10.47;100.00;100685.25;5106365;28;20030;-68
2021/05/24 09:22:14;;;;;;;13.95;4.22;;;;;;;10.50;100.00;100682.59;5102636;28;20370;-79
2021/05/24 09:24:45;;;;;;;15.65;4.40;;;;;;;10.42;100.00;100692.25;5104033;28;20039;-71
2021/05/24 09:27:35;;;;;;;16.77;4.55;;;;;;;10.40;100.00;100689.63;5103251;28;20016;-81
2021/05/24 09:30:01;;;;;;;13.55;4.15;;;;;;;10.26;100.00;100688.66;5102605;28;20471;-69
2021/05/24 09:32:29;;;;;;;16.80;5.25;;;;;;;10.32;100.00;100696.59;5105237;28;20024;-80
2021/05/24 09:34:59;;;;;;;15.52;4.50;;;;;;;10.30;100.00;100698.38;5103155;28;20035;-67
2021/05/24 09:37:33;;;;;;;14.68;4.30;;;;;;;10.23;100.00;100694.81;5105505;28;20061;-71
2021/05/24 09:39:59;;;;;;;17.08;5.18;;;;;;;10.08;100.00;100690.34;5103648;28;20032;-78
2021/05/24 09:42:25;;;;;;;15.70;4.93;;;;;;;10.09;100.00;100691.22;5105450;28;20027;-75
2021/05/24 09:44:53;;;;;;;15.57;4.78;;;;;;;10.10;100.00;100691.22;5103663;28;20126;-74
2021/05/24 09:47:36;;;;;;;13.93;4.50;;;;;;;10.16;100.00;100692.16;5102692;28;20020;-79
2021/05/24 09:50:14;;;;;;;18.38;5.80;;;;;;;10.26;100.00;100701.88;5103493;28;20072;-74
2021/05/24 09:52:40;;;;;;;17.83;5.35;;;;;;;10.24;100.00;100698.34;5103954;28;20059;-65
2021/05/24 09:55:36;;;;;;;18.08;5.57;;;;;;;10.34;100.00;100691.34;5103024;28;20043;-66
2021/05/24 09:58:06;;;;;;;18.27;5.50;;;;;;;10.36;100.00;100679.03;5100853;28;20449;-66
2021/05/24 10:00:44;;;;;;;18.77;6.43;;;;;;;10.55;100.00;100682.59;5105863;28;20027;-66
2021/05/24 10:03:11;;;;;;;16.63;5.50;;;;;;;10.48;100.00;100676.41;5099145;28;20028;-66
2021/05/24 10:05:45;;;;;;;19.70;6.88;;;;;;;10.63;100.00;100675.59;5105729;28;20038;-66
2021/05/24 10:08:11;;;;;;;20.05;6.47;;;;;;;10.64;100.00;100672.94;5099388;28;20081;-66
2021/05/24 10:10:37;;;;;;;18.05;6.28;;;;;;;10.76;100.00;100660.59;5105617;28;20413;-65
2021/05/24 10:13:04;;;;;;;16.55;5.45;;;;;;;10.74;100.00;100668.53;5101866;28;20024;-65
2021/05/24 10:15:29;;;;;;;17.60;6.30;;;;;;;10.85;100.00;100665.91;5104774;28;20028;-65
2021/05/24 10:18:02;;;;;;;18.33;5.95;;;;;;;10.78;100.00;100661.50;5102872;28;20034;-65
2021/05/24 10:20:31;;;;;;;16.15;5.45;;;;;;;10.68;100.00;100662.38;5104501;28;20024;-65
2021/05/24 10:22:57;;;;;;;17.98;6.20;;;;;;;10.77;100.00;100659.72;5101982;28;20024;-65
2021/05/24 10:25:25;;;;;;;18.40;6.07;;;;;;;10.79;100.00;100650.91;5103511;28;20039;-65
2021/05/24 10:27:52;;;;;;;19.02;6.93;;;;;;;10.93;100.00;100653.53;5092874;28;20049;-67
2021/05/24 10:30:19;;;;;;;16.63;5.88;;;;;;;11.04;100.00;100661.50;5092887;28;20418;-67
2021/05/24 10:33:03;;;;;;;18.20;5.70;;;;;;;11.09;100.00;100648.25;5091301;28;20371;-66
2021/05/24 10:35:46;;;;;;;15.45;5.50;;;;;;;11.06;100.00;100654.41;5092128;28;20031;-65
2021/05/24 10:38:33;;;;;;;16.33;4.93;;;;;;;11.18;100.00;100652.66;5090019;28;20147;-66
2021/05/24 10:41:16;;;;;;;15.15;5.10;;;;;;;11.43;100.00;100650.84;5091211;28;20024;-65
2021/05/24 10:43:49;;;;;;;15.20;5.10;;;;;;;11.61;100.00;100647.28;5093074;28;20044;-66
2021/05/24 10:46:23;;;;;;;14.63;4.80;;;;;;;11.86;100.00;100643.63;5091782;28;20027;-66
2021/05/24 10:49:10;;;;;;;12.38;4.20;;;;;;;11.78;100.00;100656.06;5093456;28;20035;-66
2021/05/24 10:51:48;;;;;;;10.98;4.07;;;;;;;11.86;100.00;100648.06;5090104;28;20089;-67
2021/05/24 10:54:31;;;;;;;10.73;3.47;;;;;;;11.96;100.00;100639.22;5090613;28;20051;-66
2021/05/24 10:57:00;;;;;;;11.10;3.50;;;;;;;11.82;100.00;100644.56;5093389;28;20063;-66
2021/05/24 10:59:41;;;;;;;10.30;3.83;;;;;;;11.81;100.00;100648.09;5090860;28;20118;-67
2021/05/24 11:02:07;;;;;;;8.50;3.03;;;;;;;11.77;100.00;100638.38;5090916;28;20474;-67
2021/05/24 11:04:56;;;;;;;7.50;3.03;;;;;;;11.79;100.00;100635.72;5091226;28;20028;-66
2021/05/24 11:07:46;;;;;;;9.18;3.00;;;;;;;12.15;100.00;100640.00;5094146;28;20379;-65
2021/05/24 11:10:17;;;;;;;7.28;3.00;;;;;;;12.53;93.13;100644.19;5091101;28;20070;-66
2021/05/24 11:12:50;;;;;;;8.25;2.97;;;;;;;12.49;92.41;100639.78;5090929;28;20032;-68
2021/05/24 11:15:32;;;;;;;8.73;2.90;;;;;;;12.52;94.07;100637.16;5092668;28;20032;-67
2021/05/24 11:18:03;;;;;;;6.78;2.60;;;;;;;12.23;91.22;100641.75;5091848;28;20028;-67
2021/05/24 11:20:35;;;;;;;7.70;2.70;;;;;;;11.79;90.67;100651.63;5091586;28;20475;-68